KTUS/TUS METAR and TAF weather

Enter ICAO airport designator
Station Type Date Time Source
KTUS METAR 2022/01/26 13:53 UTC NOAA

KTUS 261353Z 16003KT 10SM CLR 02/M05 A3011 RMK AO2 SLP186 T00221050


Station Type Date Time Source
KTUS Decoded METAR 2022/01/26 13:53 UTC NOAA

TUCSON INTERNATIONAL AIRPORT , AZ, United States (KTUS) 32-08N 110-57W 786M
Jan 26, 2022 - 08:53 AM EST / 2022.01.26 1353 UTC
Wind: from the SSE (160 degrees) at 3 MPH (3 KT):0
Visibility: 10 mile(s):0
Sky conditions: clear
Temperature: 36.0 F (2.2 C)
Dew Point: 23.0 F (-5.0 C)
Relative Humidity: 58%
Pressure (altimeter): 30.11 in. Hg (1019 hPa)
ob: KTUS 261353Z 16003KT 10SM CLR 02/M05 A3011 RMK AO2 SLP186 T00221050
cycle: 14

Station Type Date Time Source
KTUS TAF 2022/01/26 12:22 UTC NOAA

TAF KTUS 261120Z 2612/2712 14007KT P6SM FEW250
FM262000 35007KT P6SM SCT250
FM270400 24005KT P6SM SCT250

Example: see airport list